createdAt,value
2018-09-12T00:02:32.340Z,5.20
2018-09-12T00:06:40.657Z,4.40
2018-09-12T00:10:48.954Z,5.70
2018-09-12T00:14:57.504Z,5.03
2018-09-12T00:19:06.334Z,5.20
2018-09-12T00:23:14.618Z,5.03
2018-09-12T00:27:22.908Z,4.93
2018-09-12T00:31:31.197Z,6.63
2018-09-12T00:35:39.459Z,5.17
2018-09-12T00:39:47.760Z,5.33
2018-09-12T00:43:56.074Z,4.87
2018-09-12T00:48:04.393Z,6.40
2018-09-12T00:52:12.697Z,5.63
2018-09-12T00:56:20.993Z,5.07
2018-09-12T01:00:29.304Z,5.23
2018-09-12T01:04:37.630Z,5.50
2018-09-12T01:08:45.924Z,5.07
2018-09-12T01:12:54.262Z,6.27
2018-09-12T01:17:02.565Z,6.00
2018-09-12T01:21:10.841Z,5.03
2018-09-12T01:25:19.169Z,5.58
2018-09-12T01:29:27.925Z,5.30
2018-09-12T01:33:36.251Z,6.00
2018-09-12T01:37:44.581Z,5.60
2018-09-12T01:41:52.893Z,5.70
2018-09-12T01:46:01.197Z,6.50
2018-09-12T01:50:09.501Z,5.40
2018-09-12T01:54:18.617Z,6.27
2018-09-12T01:58:26.944Z,6.00
2018-09-12T02:02:35.264Z,5.87
2018-09-12T02:06:43.545Z,5.50
2018-09-12T02:10:51.857Z,6.10
2018-09-12T02:15:00.172Z,6.20
2018-09-12T02:19:08.455Z,5.70
2018-09-12T02:23:16.820Z,7.63
2018-09-12T02:27:25.164Z,6.50
2018-09-12T02:31:33.442Z,6.73
2018-09-12T02:35:47.249Z,6.67
2018-09-12T02:39:55.590Z,6.43
2018-09-12T02:44:03.895Z,6.83
2018-09-12T02:48:12.199Z,6.60
2018-09-12T02:52:20.540Z,6.97
2018-09-12T02:56:28.873Z,6.23
2018-09-12T03:00:37.160Z,6.10
2018-09-12T03:04:45.440Z,6.67
2018-09-12T03:08:53.720Z,6.77
2018-09-12T03:13:01.979Z,5.90
2018-09-12T03:17:10.946Z,6.73
2018-09-12T03:21:19.253Z,6.47
2018-09-12T03:25:27.613Z,7.20
2018-09-12T03:29:35.921Z,6.47
2018-09-12T03:33:44.236Z,7.00
2018-09-12T03:37:52.563Z,7.60
2018-09-12T03:42:00.940Z,6.93
2018-09-12T03:46:09.234Z,7.23
2018-09-12T03:50:17.554Z,7.17
2018-09-12T03:54:25.814Z,7.00
2018-09-12T03:58:34.138Z,6.73
2018-09-12T04:02:42.472Z,7.07
2018-09-12T04:06:50.741Z,7.80
2018-09-12T04:10:59.076Z,6.63
2018-09-12T04:15:07.381Z,7.53
2018-09-12T04:19:15.678Z,7.63
2018-09-12T04:23:23.986Z,7.43
2018-09-12T04:27:32.314Z,7.50
2018-09-12T04:31:40.625Z,6.80
2018-09-12T04:35:48.931Z,7.00
2018-09-12T04:39:57.228Z,7.17
2018-09-12T04:44:05.569Z,6.67
2018-09-12T04:48:13.927Z,8.20
2018-09-12T04:52:22.290Z,7.47
2018-09-12T04:56:30.565Z,6.47
2018-09-12T05:00:38.900Z,8.07
2018-09-12T05:04:47.213Z,8.77
2018-09-12T05:08:55.601Z,7.40
2018-09-12T05:13:03.853Z,7.60
2018-09-12T05:17:12.194Z,7.60
2018-09-12T05:21:20.533Z,8.07
2018-09-12T05:25:28.575Z,7.97
2018-09-12T05:29:36.915Z,7.67
2018-09-12T05:33:45.204Z,7.73
2018-09-12T05:37:53.504Z,8.30
2018-09-12T05:42:01.877Z,8.97
2018-09-12T05:46:10.173Z,7.63
2018-09-12T05:50:18.486Z,8.70
2018-09-12T05:54:26.754Z,8.57
2018-09-12T05:58:35.083Z,8.27
2018-09-12T06:02:43.444Z,8.13
2018-09-12T06:06:52.040Z,8.27
2018-09-12T06:11:00.386Z,9.10
2018-09-12T06:15:08.720Z,8.77
2018-09-12T06:19:17.116Z,8.57
2018-09-12T06:23:25.409Z,8.70
2018-09-12T06:27:34.882Z,9.20
2018-09-12T06:31:43.219Z,9.20
2018-09-12T06:35:51.510Z,8.90
2018-09-12T06:39:59.801Z,9.07
2018-09-12T06:44:08.480Z,8.80
2018-09-12T06:48:16.815Z,8.40
2018-09-12T06:52:25.106Z,9.70
2018-09-12T06:56:33.937Z,10.47
2018-09-12T07:00:42.333Z,9.43
2018-09-12T07:04:50.625Z,10.83
2018-09-12T07:08:58.915Z,10.03
2018-09-12T07:13:07.209Z,10.70
2018-09-12T07:17:15.529Z,11.20
2018-09-12T07:21:23.842Z,10.47
2018-09-12T07:25:32.254Z,13.10
2018-09-12T07:29:41.136Z,12.55
2018-09-12T07:33:49.478Z,13.60
2018-09-12T07:37:57.803Z,13.53
2018-09-12T07:42:06.156Z,13.47
2018-09-12T07:46:14.436Z,13.18
2018-09-12T07:50:22.746Z,13.47
2018-09-12T07:54:31.286Z,15.67
2018-09-12T07:58:39.593Z,15.30
2018-09-12T08:02:47.963Z,17.37
2018-09-12T08:06:56.298Z,15.67
2018-09-12T08:11:04.637Z,16.60
2018-09-12T08:15:12.982Z,17.67
2018-09-12T08:19:21.336Z,17.20
2018-09-12T08:23:29.680Z,16.50
2018-09-12T08:27:38.021Z,16.77
2018-09-12T08:31:46.466Z,17.13
2018-09-12T08:35:54.792Z,17.57
2018-09-12T08:40:03.226Z,15.90
2018-09-12T08:44:11.600Z,16.87
2018-09-12T08:48:19.962Z,16.70
2018-09-12T08:52:28.290Z,16.50
2018-09-12T08:56:36.716Z,14.90
2018-09-12T09:00:45.536Z,16.37
2018-09-12T09:04:53.884Z,15.87
2018-09-12T09:09:02.208Z,15.97
2018-09-12T09:13:10.556Z,14.57
2018-09-12T09:17:18.930Z,16.70
2018-09-12T09:21:27.255Z,15.25
2018-09-12T09:25:35.703Z,15.07
2018-09-12T09:29:44.072Z,15.57
2018-09-12T09:33:52.370Z,13.90
2018-09-12T09:38:00.671Z,14.43
2018-09-12T09:42:08.979Z,12.65
2018-09-12T09:46:17.298Z,13.57
2018-09-12T09:50:25.583Z,12.00
2018-09-12T09:54:33.903Z,13.50
2018-09-12T09:58:42.197Z,12.70
2018-09-12T10:02:55.978Z,13.80
2018-09-12T10:07:09.589Z,13.53
2018-09-12T10:11:17.671Z,13.00
2018-09-12T10:15:25.936Z,14.03
2018-09-12T10:19:34.253Z,15.67
2018-09-12T10:23:42.706Z,15.80
2018-09-12T10:27:51.093Z,15.33
2018-09-12T10:32:00.496Z,13.57
2018-09-12T10:36:08.877Z,14.20
2018-09-12T10:40:17.243Z,14.53
2018-09-12T10:44:25.559Z,14.33
2018-09-12T10:48:33.891Z,12.80
2018-09-12T10:52:42.245Z,12.47
2018-09-12T10:56:50.787Z,12.23
2018-09-12T11:00:59.224Z,16.00
2018-09-12T11:05:07.534Z,14.80
2018-09-12T11:09:15.888Z,16.10
2018-09-12T11:13:24.251Z,14.93
2018-09-12T11:17:32.614Z,16.43
2018-09-12T11:21:40.970Z,6.60
2018-09-12T11:25:49.340Z,7.50
2018-09-12T11:29:57.657Z,5.50
2018-09-12T11:34:05.961Z,7.50
2018-09-12T11:38:14.268Z,5.90
2018-09-12T11:42:22.565Z,5.77
2018-09-12T11:46:30.878Z,5.47
2018-09-12T11:50:39.221Z,4.00
2018-09-12T11:54:47.510Z,3.70
2018-09-12T11:58:55.839Z,4.10
2018-09-12T12:03:04.155Z,4.73
2018-09-12T12:07:12.426Z,5.23
2018-09-12T12:11:20.715Z,5.30
2018-09-12T12:15:29.072Z,6.73
2018-09-12T12:19:37.347Z,4.80
2018-09-12T12:23:45.642Z,4.60
2018-09-12T12:27:54.336Z,6.03
2018-09-12T12:32:04.358Z,7.10
2018-09-12T12:36:12.737Z,7.73
2018-09-12T12:40:21.262Z,9.13
2018-09-12T12:44:29.588Z,6.93
2018-09-12T12:48:37.942Z,6.90
2018-09-12T12:52:46.415Z,6.67
2018-09-12T12:56:54.741Z,6.77
2018-09-12T13:01:03.060Z,7.43
2018-09-12T13:05:11.342Z,6.83
2018-09-12T13:09:19.621Z,6.73
2018-09-12T13:13:27.891Z,7.50
2018-09-12T13:17:36.164Z,7.27
2018-09-12T13:21:44.608Z,7.60
2018-09-12T13:25:52.775Z,8.07
2018-09-12T13:30:01.108Z,7.97
2018-09-12T13:34:09.534Z,8.73
2018-09-12T13:38:17.860Z,9.20
2018-09-12T13:42:26.217Z,10.10
2018-09-12T13:46:34.604Z,10.87
2018-09-12T13:50:42.941Z,7.40
2018-09-12T13:54:51.320Z,6.40
2018-09-12T13:58:59.646Z,5.40
2018-09-12T14:03:07.977Z,6.00
2018-09-12T14:07:16.285Z,5.47
2018-09-12T14:11:24.917Z,5.27
2018-09-12T14:15:33.242Z,4.40
2018-09-12T14:19:41.551Z,4.80
2018-09-12T14:23:49.596Z,4.90
2018-09-12T14:27:57.910Z,5.20
2018-09-12T14:32:06.196Z,5.30
2018-09-12T14:36:14.550Z,5.83
2018-09-12T14:40:22.904Z,5.97
2018-09-12T14:44:31.209Z,5.90
2018-09-12T14:48:39.601Z,5.73
2018-09-12T14:52:47.949Z,7.10
2018-09-12T14:56:56.234Z,6.57
2018-09-12T15:01:04.562Z,7.70
2018-09-12T15:05:12.873Z,6.62
2018-09-12T15:09:21.198Z,6.40
2018-09-12T15:13:29.492Z,6.60
2018-09-12T15:17:37.803Z,7.53
2018-09-12T15:21:46.155Z,7.67
2018-09-12T15:25:54.490Z,7.07
2018-09-12T15:30:02.855Z,6.90
2018-09-12T15:34:11.185Z,7.30
2018-09-12T15:38:19.492Z,6.43
2018-09-12T15:42:28.053Z,7.27
2018-09-12T15:46:36.350Z,6.17
2018-09-12T15:50:44.646Z,6.67
2018-09-12T15:54:52.984Z,6.77
2018-09-12T15:59:01.301Z,6.23
2018-09-12T16:03:09.619Z,6.93
2018-09-12T16:07:17.895Z,7.60
2018-09-12T16:11:26.211Z,7.77
2018-09-12T16:15:34.678Z,6.50
2018-09-12T16:19:42.938Z,7.40
2018-09-12T16:23:51.351Z,6.40
2018-09-12T16:27:59.682Z,6.17
2018-09-12T16:32:08.117Z,6.17
2018-09-12T16:36:16.470Z,6.73
2018-09-12T16:40:24.853Z,6.60
2018-09-12T16:44:33.139Z,5.67
2018-09-12T16:48:41.449Z,6.37
2018-09-12T16:52:49.742Z,6.60
2018-09-12T16:56:58.069Z,6.25
2018-09-12T17:01:06.405Z,5.97
2018-09-12T17:05:14.727Z,5.47
2018-09-12T17:09:23.566Z,5.73
2018-09-12T17:13:31.942Z,5.78
2018-09-12T17:17:41.223Z,5.30
2018-09-12T17:21:49.729Z,5.40
2018-09-12T17:25:57.969Z,6.33
2018-09-12T17:30:06.323Z,5.47
2018-09-12T17:34:14.592Z,5.40
2018-09-12T17:38:22.883Z,4.10
2018-09-12T17:42:31.162Z,4.97
2018-09-12T17:46:39.459Z,6.20
2018-09-12T17:50:54.369Z,5.87
2018-09-12T17:55:02.724Z,5.10
2018-09-12T17:59:11.012Z,5.57
2018-09-12T18:03:19.285Z,5.10
2018-09-12T18:07:27.642Z,5.57
2018-09-12T18:11:35.946Z,6.60
2018-09-12T18:15:44.228Z,6.13
2018-09-12T18:19:52.576Z,5.23
2018-09-12T18:24:00.897Z,6.80
2018-09-12T18:28:09.221Z,6.17
2018-09-12T18:32:17.589Z,6.80
2018-09-12T18:36:25.922Z,6.97
2018-09-12T18:40:34.299Z,6.40
2018-09-12T18:44:42.611Z,7.53
2018-09-12T18:48:51.254Z,6.30
2018-09-12T18:52:59.981Z,6.47
2018-09-12T18:57:08.322Z,7.20
2018-09-12T19:01:16.626Z,6.47
2018-09-12T19:05:24.932Z,6.30
2018-09-12T19:09:33.253Z,7.10
2018-09-12T19:13:41.580Z,7.17
2018-09-12T19:17:49.867Z,7.47
2018-09-12T19:21:58.222Z,8.03
2018-09-12T19:26:06.585Z,7.80
2018-09-12T19:30:14.919Z,6.90
2018-09-12T19:34:23.192Z,7.50
2018-09-12T19:38:32.037Z,7.50
2018-09-12T19:42:40.416Z,6.50
2018-09-12T19:46:48.742Z,8.13
2018-09-12T19:50:57.066Z,7.67
2018-09-12T19:55:05.382Z,7.00
2018-09-12T19:59:13.752Z,6.70
2018-09-12T20:03:22.075Z,7.10
2018-09-12T20:07:31.648Z,7.00
2018-09-12T20:11:40.366Z,7.17
2018-09-12T20:15:48.755Z,6.93
2018-09-12T20:19:57.098Z,6.97
2018-09-12T20:24:05.612Z,8.30
2018-09-12T20:28:13.977Z,7.03
2018-09-12T20:32:22.269Z,7.33
2018-09-12T20:36:30.588Z,6.83
2018-09-12T20:40:38.907Z,7.10
2018-09-12T20:44:47.219Z,8.30
2018-09-12T20:48:55.502Z,6.60
2018-09-12T20:53:03.874Z,6.73
2018-09-12T20:57:12.182Z,6.65
2018-09-12T21:01:20.491Z,6.50
2018-09-12T21:05:28.758Z,7.33
2018-09-12T21:09:37.067Z,7.93
2018-09-12T21:13:45.357Z,6.70
2018-09-12T21:17:53.774Z,6.50
2018-09-12T21:22:02.080Z,6.83
2018-09-12T21:26:10.369Z,7.00
2018-09-12T21:30:18.691Z,6.30
2018-09-12T21:34:26.988Z,5.90
2018-09-12T21:38:35.287Z,7.20
2018-09-12T21:42:43.607Z,5.40
2018-09-12T21:46:51.876Z,5.33
2018-09-12T21:51:00.231Z,5.13
2018-09-12T21:55:08.508Z,4.90
2018-09-12T21:59:16.837Z,4.63
2018-09-12T22:03:25.126Z,5.20
2018-09-12T22:07:33.535Z,5.40
2018-09-12T22:11:41.803Z,4.77
2018-09-12T22:15:50.113Z,5.80
2018-09-12T22:19:58.407Z,4.40
2018-09-12T22:24:06.711Z,6.50
2018-09-12T22:28:15.025Z,5.30
2018-09-12T22:32:23.387Z,7.03
2018-09-12T22:36:32.127Z,5.10
2018-09-12T22:40:40.420Z,5.40
2018-09-12T22:44:48.736Z,5.33
2018-09-12T22:48:56.988Z,4.97
2018-09-12T22:53:05.257Z,5.30
2018-09-12T22:57:13.549Z,5.23
2018-09-12T23:01:21.888Z,5.53
2018-09-12T23:05:30.183Z,5.77
2018-09-12T23:09:38.472Z,5.83
2018-09-12T23:13:46.855Z,5.53
2018-09-12T23:17:55.132Z,4.70
2018-09-12T23:22:03.993Z,5.67
2018-09-12T23:26:12.277Z,5.40
2018-09-12T23:30:20.642Z,5.53
2018-09-12T23:34:28.969Z,6.03
2018-09-12T23:38:37.304Z,6.37
2018-09-12T23:42:45.667Z,5.00
2018-09-12T23:46:54.005Z,4.77
2018-09-12T23:51:02.362Z,6.33
2018-09-12T23:55:10.687Z,5.30
2018-09-12T23:59:19.027Z,5.50
